createdAt,value
2018-12-30T00:02:41.033Z,6.70
2018-12-30T00:05:09.905Z,6.70
2018-12-30T00:07:38.082Z,6.70
2018-12-30T00:10:06.136Z,6.70
2018-12-30T00:12:34.054Z,6.70
2018-12-30T00:15:02.220Z,6.60
2018-12-30T00:17:30.274Z,6.60
2018-12-30T00:19:58.513Z,6.60
2018-12-30T00:22:26.361Z,6.60
2018-12-30T00:24:54.255Z,6.60
2018-12-30T00:27:22.159Z,6.60
2018-12-30T00:29:50.147Z,6.60
2018-12-30T00:32:18.138Z,6.60
2018-12-30T00:34:46.006Z,6.60
2018-12-30T00:37:14.047Z,6.60
2018-12-30T00:39:41.895Z,6.60
2018-12-30T00:42:09.799Z,6.60
2018-12-30T00:44:37.665Z,6.60
2018-12-30T00:47:05.602Z,6.50
2018-12-30T00:49:33.598Z,6.50
2018-12-30T00:52:01.503Z,6.40
2018-12-30T00:54:29.491Z,6.40
2018-12-30T00:56:57.459Z,6.40
2018-12-30T00:59:25.422Z,6.50
2018-12-30T01:01:53.423Z,6.50
2018-12-30T01:04:21.378Z,6.50
2018-12-30T01:06:49.344Z,6.50
2018-12-30T01:09:17.237Z,6.50
2018-12-30T01:11:45.094Z,6.50
2018-12-30T01:14:12.940Z,6.50
2018-12-30T01:16:40.848Z,6.50
2018-12-30T01:19:08.934Z,6.50
2018-12-30T01:21:36.836Z,6.50
2018-12-30T01:24:04.818Z,6.40
2018-12-30T01:26:32.717Z,6.50
2018-12-30T01:29:00.634Z,6.40
2018-12-30T01:31:28.527Z,6.40
2018-12-30T01:33:56.599Z,6.50
2018-12-30T01:36:24.494Z,6.40
2018-12-30T01:38:52.334Z,6.40
2018-12-30T01:41:20.358Z,6.40
2018-12-30T01:43:48.248Z,6.40
2018-12-30T01:46:16.506Z,6.40
2018-12-30T01:48:44.464Z,6.40
2018-12-30T01:51:12.397Z,6.50
2018-12-30T01:53:40.311Z,6.40
2018-12-30T01:56:08.139Z,6.50
2018-12-30T01:58:36.211Z,6.50
2018-12-30T02:01:04.355Z,6.50
2018-12-30T02:03:32.291Z,6.50
2018-12-30T02:06:00.253Z,6.50
2018-12-30T02:08:28.205Z,6.50
2018-12-30T02:10:56.527Z,6.50
2018-12-30T02:13:25.564Z,6.40
2018-12-30T02:15:53.512Z,6.50
2018-12-30T02:18:21.423Z,6.50
2018-12-30T02:20:49.411Z,6.50
2018-12-30T02:23:17.270Z,6.50
2018-12-30T02:25:45.208Z,6.40
2018-12-30T02:28:13.015Z,6.50
2018-12-30T02:30:40.914Z,6.50
2018-12-30T02:33:08.873Z,6.50
2018-12-30T02:35:36.807Z,6.40
2018-12-30T02:38:04.755Z,6.40
2018-12-30T02:40:33.115Z,6.40
2018-12-30T02:43:00.975Z,6.40
2018-12-30T02:45:29.776Z,6.50
2018-12-30T02:47:57.583Z,6.50
2018-12-30T02:50:25.547Z,6.50
2018-12-30T02:52:53.430Z,6.50
2018-12-30T02:55:21.323Z,6.50
2018-12-30T02:57:49.333Z,6.50
2018-12-30T03:00:17.267Z,6.50
2018-12-30T03:02:45.131Z,6.50
2018-12-30T03:05:13.199Z,6.50
2018-12-30T03:07:41.356Z,6.40
2018-12-30T03:10:09.256Z,6.40
2018-12-30T03:12:37.345Z,6.40
2018-12-30T03:15:05.279Z,6.40
2018-12-30T03:17:33.228Z,6.50
2018-12-30T03:20:01.179Z,6.40
2018-12-30T03:22:29.075Z,6.40
2018-12-30T03:24:57.079Z,6.50
2018-12-30T03:31:08.714Z,6.40
2018-12-30T03:33:36.629Z,6.50
2018-12-30T03:36:04.605Z,6.50
2018-12-30T03:38:32.990Z,6.60
2018-12-30T03:41:01.831Z,6.50
2018-12-30T03:43:29.731Z,6.60
2018-12-30T03:45:57.574Z,6.60
2018-12-30T03:48:25.518Z,6.40
2018-12-30T03:50:53.364Z,6.40
2018-12-30T03:53:21.289Z,6.50
2018-12-30T03:55:49.312Z,6.50
2018-12-30T03:58:17.142Z,6.50
2018-12-30T04:00:45.050Z,6.50
2018-12-30T04:03:12.916Z,6.50
2018-12-30T04:05:40.918Z,6.60
2018-12-30T04:08:08.811Z,6.60
2018-12-30T04:10:36.816Z,6.60
2018-12-30T04:13:04.694Z,6.60
2018-12-30T04:15:32.553Z,6.60
2018-12-30T04:18:00.525Z,6.60
2018-12-30T04:20:29.828Z,6.70
2018-12-30T04:22:57.820Z,6.60
2018-12-30T04:25:25.843Z,6.70
2018-12-30T04:27:53.884Z,6.70
2018-12-30T04:30:21.762Z,6.70
2018-12-30T04:32:50.112Z,6.70
2018-12-30T04:35:18.288Z,6.70
2018-12-30T04:37:46.359Z,6.70
2018-12-30T04:40:14.431Z,6.70
2018-12-30T04:42:42.849Z,6.80
2018-12-30T04:45:10.792Z,6.70
2018-12-30T04:47:38.808Z,6.70
2018-12-30T04:50:06.724Z,6.70
2018-12-30T04:52:34.539Z,6.70
2018-12-30T04:55:02.453Z,6.80
2018-12-30T04:57:30.315Z,6.80
2018-12-30T04:59:58.171Z,6.80
2018-12-30T05:02:26.093Z,6.80
2018-12-30T05:04:54.535Z,6.80
2018-12-30T05:07:22.769Z,6.80
2018-12-30T05:09:50.658Z,6.80
2018-12-30T05:12:19.052Z,6.80
2018-12-30T05:14:47.080Z,6.80
2018-12-30T05:17:15.439Z,6.80
2018-12-30T05:19:43.447Z,6.80
2018-12-30T05:22:19.335Z,6.80
2018-12-30T05:24:47.312Z,6.80
2018-12-30T05:27:15.211Z,6.90
2018-12-30T05:29:43.179Z,6.90
2018-12-30T05:32:11.154Z,6.80
2018-12-30T05:34:39.427Z,6.80
2018-12-30T05:37:07.424Z,6.80
2018-12-30T05:39:35.359Z,6.80
2018-12-30T05:42:03.319Z,6.80
2018-12-30T05:44:31.149Z,6.80
2018-12-30T05:46:59.115Z,6.90
2018-12-30T05:49:26.930Z,6.90
2018-12-30T05:51:54.935Z,6.90
2018-12-30T05:54:22.858Z,6.90
2018-12-30T05:56:50.682Z,6.90
2018-12-30T05:59:18.619Z,6.90
2018-12-30T06:01:46.493Z,6.90
2018-12-30T06:04:14.383Z,6.90
2018-12-30T06:06:42.418Z,6.90
2018-12-30T06:09:10.468Z,6.90
2018-12-30T06:11:38.365Z,7.00
2018-12-30T06:14:06.363Z,6.90
2018-12-30T06:16:34.936Z,6.90
2018-12-30T06:19:02.830Z,6.90
2018-12-30T06:21:30.683Z,6.90
2018-12-30T06:23:58.724Z,6.90
2018-12-30T06:26:26.618Z,6.90
2018-12-30T06:28:54.623Z,6.90
2018-12-30T06:31:22.463Z,6.90
2018-12-30T06:33:50.355Z,6.90
2018-12-30T06:36:18.455Z,6.90
2018-12-30T06:38:46.360Z,6.90
2018-12-30T06:41:14.310Z,6.90
2018-12-30T06:43:42.318Z,7.00
2018-12-30T06:46:10.259Z,7.00
2018-12-30T06:48:57.575Z,6.90
2018-12-30T06:51:25.943Z,7.00
2018-12-30T06:53:53.859Z,7.00
2018-12-30T06:56:21.790Z,6.90
2018-12-30T06:58:49.684Z,7.00
2018-12-30T07:01:17.703Z,7.00
2018-12-30T07:03:45.690Z,7.00
2018-12-30T07:06:13.602Z,7.00
2018-12-30T07:08:41.507Z,7.00
2018-12-30T07:11:18.671Z,7.00
2018-12-30T07:13:46.587Z,7.00
2018-12-30T07:16:14.543Z,7.00
2018-12-30T07:18:42.425Z,7.00
2018-12-30T07:21:10.239Z,7.00
2018-12-30T07:23:38.121Z,7.00
2018-12-30T07:26:06.095Z,7.00
2018-12-30T07:28:34.015Z,7.00
2018-12-30T07:31:01.839Z,7.10
2018-12-30T07:33:29.837Z,7.10
2018-12-30T07:36:10.244Z,7.10
2018-12-30T07:38:38.550Z,7.10
2018-12-30T07:41:06.675Z,7.10
2018-12-30T07:43:34.595Z,7.10
2018-12-30T07:46:02.638Z,7.10
2018-12-30T07:48:30.979Z,7.20
2018-12-30T07:50:58.950Z,7.20
2018-12-30T07:53:26.880Z,7.20
2018-12-30T07:55:54.867Z,7.20
2018-12-30T07:58:22.747Z,7.20
2018-12-30T08:00:50.696Z,7.30
2018-12-30T08:03:18.576Z,7.20
2018-12-30T08:05:46.400Z,7.30
2018-12-30T08:08:14.290Z,7.30
2018-12-30T08:10:42.248Z,7.20
2018-12-30T08:13:10.135Z,7.20
2018-12-30T08:15:38.070Z,7.20
2018-12-30T08:18:06.004Z,7.30
2018-12-30T08:20:33.875Z,7.30
2018-12-30T08:23:01.726Z,7.30
2018-12-30T08:25:30.920Z,7.40
2018-12-30T08:27:58.724Z,7.30
2018-12-30T08:30:26.754Z,7.30
2018-12-30T08:32:54.699Z,7.40
2018-12-30T08:35:23.031Z,7.40
2018-12-30T08:37:50.977Z,7.50
2018-12-30T08:40:19.156Z,7.60
2018-12-30T08:42:47.120Z,7.60
2018-12-30T08:45:15.902Z,7.70
2018-12-30T08:47:43.869Z,7.80
2018-12-30T08:50:11.731Z,7.80
2018-12-30T08:52:39.648Z,7.90
2018-12-30T08:55:07.651Z,8.00
2018-12-30T08:57:35.587Z,8.10
2018-12-30T09:00:04.407Z,8.20
2018-12-30T09:02:32.366Z,8.30
2018-12-30T09:05:00.285Z,8.40
2018-12-30T09:07:28.288Z,8.40
2018-12-30T09:09:56.239Z,8.50
2018-12-30T09:12:24.199Z,8.60
2018-12-30T09:14:58.782Z,8.70
2018-12-30T09:17:27.022Z,8.80
2018-12-30T09:19:54.947Z,9.00
2018-12-30T09:22:22.851Z,9.10
2018-12-30T09:24:50.756Z,9.30
2018-12-30T09:27:18.730Z,9.30
2018-12-30T09:29:46.731Z,9.50
2018-12-30T09:32:14.999Z,9.60
2018-12-30T09:34:42.920Z,9.70
2018-12-30T09:37:10.930Z,9.80
2018-12-30T09:39:38.917Z,9.90
2018-12-30T09:42:06.890Z,10.00
2018-12-30T09:44:34.790Z,10.10
2018-12-30T09:47:02.884Z,10.10
2018-12-30T09:49:31.243Z,10.10
2018-12-30T09:51:59.231Z,10.20
2018-12-30T09:54:27.391Z,10.30
2018-12-30T09:56:55.191Z,10.40
2018-12-30T09:59:23.182Z,10.40
2018-12-30T10:01:51.339Z,10.50
2018-12-30T10:04:19.275Z,10.50
2018-12-30T10:06:47.188Z,10.60
2018-12-30T10:09:15.055Z,10.60
2018-12-30T10:11:42.931Z,10.60
2018-12-30T10:14:20.852Z,10.60
2018-12-30T10:16:48.791Z,10.60
2018-12-30T10:19:16.776Z,10.60
2018-12-30T10:21:44.642Z,10.60
2018-12-30T10:24:12.575Z,10.60
2018-12-30T10:26:40.475Z,10.60
2018-12-30T10:29:08.447Z,10.60
2018-12-30T10:31:36.437Z,10.60
2018-12-30T10:34:04.291Z,10.70
2018-12-30T10:36:32.175Z,10.80
2018-12-30T10:39:00.126Z,10.90
2018-12-30T10:41:28.078Z,10.90
2018-12-30T10:43:56.260Z,11.00
2018-12-30T10:46:24.111Z,11.00
2018-12-30T10:48:52.045Z,11.00
2018-12-30T10:51:20.069Z,11.00
2018-12-30T10:53:47.938Z,11.00
2018-12-30T10:56:15.939Z,11.00
2018-12-30T10:58:44.083Z,11.20
2018-12-30T11:01:12.115Z,11.30
2018-12-30T11:03:40.137Z,11.50
2018-12-30T11:06:08.195Z,11.70
2018-12-30T11:08:36.175Z,11.90
2018-12-30T11:11:04.069Z,12.00
2018-12-30T11:13:32.031Z,12.20
2018-12-30T11:16:00.035Z,12.30
2018-12-30T11:18:27.997Z,12.40
2018-12-30T11:20:55.927Z,12.50
2018-12-30T11:23:23.952Z,12.60
2018-12-30T11:25:51.895Z,12.80
2018-12-30T11:28:19.787Z,12.90
2018-12-30T11:30:47.748Z,13.00
2018-12-30T11:33:15.838Z,13.10
2018-12-30T11:35:43.855Z,13.30
2018-12-30T11:38:12.430Z,13.40
2018-12-30T11:40:40.289Z,13.60
2018-12-30T11:43:08.263Z,13.70
2018-12-30T11:45:36.688Z,13.80
2018-12-30T11:48:04.610Z,14.00
2018-12-30T11:50:32.583Z,14.10
2018-12-30T11:53:00.703Z,14.20
2018-12-30T11:55:29.648Z,14.30
2018-12-30T11:57:57.572Z,14.40
2018-12-30T12:00:25.456Z,14.50
2018-12-30T12:02:53.360Z,14.60
2018-12-30T12:05:21.281Z,14.70
2018-12-30T12:07:49.216Z,14.80
2018-12-30T12:10:17.647Z,14.90
2018-12-30T12:12:49.121Z,15.00
2018-12-30T12:15:38.688Z,15.10
2018-12-30T12:18:07.044Z,15.20
2018-12-30T12:20:35.351Z,15.30
2018-12-30T12:23:03.291Z,15.40
2018-12-30T12:25:31.299Z,15.50
2018-12-30T12:27:59.280Z,15.50
2018-12-30T12:30:27.411Z,15.60
2018-12-30T12:32:55.487Z,15.70
2018-12-30T12:35:23.934Z,15.70
2018-12-30T12:37:51.839Z,15.80
2018-12-30T12:40:19.963Z,15.90
2018-12-30T12:42:47.850Z,16.00
2018-12-30T12:45:16.175Z,16.00
2018-12-30T12:47:44.062Z,16.10
2018-12-30T12:50:11.959Z,16.10
2018-12-30T12:52:40.295Z,16.20
2018-12-30T12:55:08.615Z,16.30
2018-12-30T12:57:36.635Z,16.30
2018-12-30T13:00:06.617Z,16.20
2018-12-30T13:02:34.675Z,16.20
2018-12-30T13:05:02.633Z,16.20
2018-12-30T13:07:30.594Z,16.20
2018-12-30T13:09:58.434Z,16.20
2018-12-30T13:12:26.268Z,16.20
2018-12-30T13:15:23.214Z,16.20
2018-12-30T13:17:50.612Z,16.30
2018-12-30T13:20:19.386Z,16.40
2018-12-30T13:22:47.332Z,16.50
2018-12-30T13:25:15.238Z,16.50
2018-12-30T13:27:43.491Z,16.40
2018-12-30T13:30:11.443Z,16.40
2018-12-30T13:32:41.030Z,16.40
2018-12-30T13:35:09.063Z,16.40
2018-12-30T13:37:37.484Z,16.50
2018-12-30T13:40:06.127Z,16.50
2018-12-30T13:42:34.043Z,16.60
2018-12-30T13:45:02.133Z,16.60
2018-12-30T13:47:30.079Z,16.60
2018-12-30T13:49:58.320Z,16.60
2018-12-30T13:52:26.187Z,16.50
2018-12-30T13:54:54.326Z,16.50
2018-12-30T13:57:22.287Z,16.50
2018-12-30T13:59:50.192Z,16.60
2018-12-30T14:02:18.236Z,16.60
2018-12-30T14:04:46.195Z,16.60
2018-12-30T14:07:14.618Z,16.60
2018-12-30T14:09:42.530Z,16.60
2018-12-30T14:12:10.495Z,16.50
2018-12-30T14:15:14.735Z,16.50
2018-12-30T14:17:42.827Z,16.40
2018-12-30T14:20:10.786Z,16.40
2018-12-30T14:22:38.852Z,16.30
2018-12-30T14:25:07.179Z,16.40
2018-12-30T14:27:35.369Z,16.30
2018-12-30T14:30:03.851Z,16.30
2018-12-30T14:32:31.699Z,16.20
2018-12-30T14:34:59.751Z,16.20
2018-12-30T14:37:27.819Z,16.10
2018-12-30T14:39:55.707Z,16.20
2018-12-30T14:42:23.542Z,16.10
2018-12-30T14:44:51.454Z,16.10
2018-12-30T14:47:19.448Z,16.10
2018-12-30T14:49:47.420Z,16.00
2018-12-30T14:52:15.307Z,16.00
2018-12-30T14:54:43.158Z,16.00
2018-12-30T14:57:11.162Z,15.90
2018-12-30T14:59:39.166Z,15.80
2018-12-30T15:02:07.170Z,15.80
2018-12-30T15:04:35.232Z,15.70
2018-12-30T15:07:03.140Z,15.60
2018-12-30T15:09:35.655Z,15.50
2018-12-30T15:12:00.853Z,15.40
2018-12-30T15:14:53.102Z,15.30
2018-12-30T15:17:21.115Z,15.30
2018-12-30T15:19:49.045Z,15.30
2018-12-30T15:22:17.068Z,15.20
2018-12-30T15:24:45.061Z,15.10
2018-12-30T15:27:12.989Z,15.00
2018-12-30T15:29:41.071Z,15.00
2018-12-30T15:32:08.950Z,14.90
2018-12-30T15:34:36.870Z,14.90
2018-12-30T15:37:04.782Z,14.80
2018-12-30T15:39:32.917Z,14.70
2018-12-30T15:42:00.833Z,14.60
2018-12-30T15:44:28.798Z,14.40
2018-12-30T15:46:56.688Z,14.40
2018-12-30T15:49:24.632Z,14.30
2018-12-30T15:51:52.531Z,14.20
2018-12-30T15:54:20.444Z,14.10
2018-12-30T15:56:48.375Z,14.00
2018-12-30T15:59:16.751Z,13.90
2018-12-30T16:01:44.727Z,13.90
2018-12-30T16:04:12.715Z,13.80
2018-12-30T16:06:40.721Z,13.70
2018-12-30T16:09:08.727Z,13.60
2018-12-30T16:11:36.743Z,13.60
2018-12-30T16:14:04.769Z,13.60
2018-12-30T16:16:32.694Z,13.50
2018-12-30T16:19:00.656Z,13.40
2018-12-30T16:21:28.668Z,13.40
2018-12-30T16:23:56.604Z,13.40
2018-12-30T16:26:24.819Z,13.30
2018-12-30T16:28:52.710Z,13.20
2018-12-30T16:31:27.894Z,13.20
2018-12-30T16:33:50.387Z,13.20
2018-12-30T16:36:18.284Z,13.20
2018-12-30T16:38:46.617Z,13.10
2018-12-30T16:41:14.592Z,13.00
2018-12-30T16:43:42.535Z,13.00
2018-12-30T16:46:10.533Z,12.90
2018-12-30T16:48:38.466Z,12.90
2018-12-30T16:51:40.472Z,12.80
2018-12-30T16:55:21.179Z,12.70
2018-12-30T16:59:05.315Z,12.70
2018-12-30T17:02:26.410Z,12.70
2018-12-30T17:06:21.751Z,12.60
2018-12-30T17:09:37.524Z,12.60
2018-12-30T17:12:41.899Z,12.60
2018-12-30T17:15:54.027Z,12.60
2018-12-30T17:18:19.933Z,12.60
2018-12-30T17:20:47.998Z,12.60
2018-12-30T17:23:15.975Z,12.50
2018-12-30T17:25:43.885Z,12.50
2018-12-30T17:28:11.919Z,12.50
2018-12-30T17:30:39.842Z,12.50
2018-12-30T17:33:07.895Z,12.50
2018-12-30T17:35:36.071Z,12.40
2018-12-30T17:38:04.254Z,12.40
2018-12-30T17:40:38.376Z,12.40
2018-12-30T17:43:02.115Z,12.30
2018-12-30T17:45:30.806Z,12.30
2018-12-30T17:47:59.080Z,12.30
2018-12-30T17:50:27.726Z,12.30
2018-12-30T17:52:55.599Z,12.30
2018-12-30T17:55:23.616Z,12.30
2018-12-30T17:57:51.571Z,12.20
2018-12-30T18:00:20.174Z,12.20
2018-12-30T18:02:48.556Z,12.10
2018-12-30T18:05:16.505Z,12.10
2018-12-30T18:07:47.575Z,12.10
2018-12-30T18:10:15.844Z,12.10
2018-12-30T18:12:43.758Z,12.00
2018-12-30T18:15:29.990Z,12.00
2018-12-30T18:17:58.006Z,12.00
2018-12-30T18:20:25.952Z,11.90
2018-12-30T18:22:53.914Z,11.90
2018-12-30T18:25:21.859Z,12.00
2018-12-30T18:27:49.807Z,12.00
2018-12-30T18:30:17.957Z,11.90
2018-12-30T18:32:45.919Z,11.90
2018-12-30T18:35:13.875Z,11.90
2018-12-30T18:37:41.731Z,11.90
2018-12-30T18:40:09.663Z,11.90
2018-12-30T18:42:37.586Z,11.90
2018-12-30T18:45:06.211Z,11.80
2018-12-30T18:47:34.173Z,11.90
2018-12-30T18:50:02.227Z,11.80
2018-12-30T18:52:30.189Z,11.70
2018-12-30T18:54:58.358Z,11.70
2018-12-30T18:57:26.336Z,11.70
2018-12-30T18:59:54.174Z,11.60
2018-12-30T19:02:22.142Z,11.60
2018-12-30T19:04:49.985Z,11.60
2018-12-30T19:07:17.994Z,11.50
2018-12-30T19:09:45.971Z,11.50
2018-12-30T19:12:14.162Z,11.60
2018-12-30T19:15:03.841Z,11.50
2018-12-30T19:17:31.889Z,11.60
2018-12-30T19:19:59.809Z,11.50
2018-12-30T19:22:27.732Z,11.40
2018-12-30T19:24:55.730Z,11.40
2018-12-30T19:27:27.405Z,11.30
2018-12-30T19:29:58.140Z,11.30
2018-12-30T19:32:27.838Z,11.20
2018-12-30T19:35:00.781Z,11.20
2018-12-30T19:37:29.503Z,11.20
2018-12-30T19:40:01.224Z,11.30
2018-12-30T19:42:33.444Z,11.30
2018-12-30T19:45:05.080Z,11.20
2018-12-30T19:47:38.050Z,11.20
2018-12-30T19:50:10.063Z,11.10
2018-12-30T19:52:42.125Z,11.00
2018-12-30T19:55:11.172Z,10.90
2018-12-30T19:57:43.096Z,10.80
2018-12-30T20:00:14.492Z,10.90
2018-12-30T20:02:46.709Z,11.00
2018-12-30T20:05:14.944Z,10.90
2018-12-30T20:07:42.848Z,10.70
2018-12-30T20:10:11.043Z,10.80
2018-12-30T20:12:39.040Z,10.70
2018-12-30T20:15:28.926Z,10.60
2018-12-30T20:17:56.866Z,10.50
2018-12-30T20:20:24.969Z,10.50
2018-12-30T20:22:52.984Z,10.60
2018-12-30T20:25:21.127Z,10.70
2018-12-30T20:27:49.090Z,10.80
2018-12-30T20:30:17.093Z,10.80
2018-12-30T20:32:44.938Z,10.70
2018-12-30T20:35:13.030Z,10.60
2018-12-30T20:37:40.981Z,10.50
2018-12-30T20:40:08.820Z,10.50
2018-12-30T20:42:36.780Z,10.40
2018-12-30T20:45:05.083Z,10.40
2018-12-30T20:47:33.072Z,10.30
2018-12-30T20:50:01.104Z,10.20
2018-12-30T20:52:29.108Z,10.20
2018-12-30T20:54:57.160Z,10.10
2018-12-30T20:57:25.083Z,10.10
2018-12-30T20:59:53.014Z,10.00
2018-12-30T21:02:21.140Z,10.10
2018-12-30T21:04:49.179Z,10.10
2018-12-30T21:07:17.151Z,10.10
2018-12-30T21:09:45.277Z,10.20
2018-12-30T21:12:14.660Z,10.20
2018-12-30T21:15:10.659Z,10.20
2018-12-30T21:17:38.646Z,10.10
2018-12-30T21:20:06.781Z,10.00
2018-12-30T21:22:34.793Z,10.00
2018-12-30T21:25:02.936Z,10.10
2018-12-30T21:27:39.562Z,10.10
2018-12-30T21:30:08.198Z,10.00
2018-12-30T21:32:36.231Z,10.00
2018-12-30T21:35:04.631Z,9.90
2018-12-30T21:37:32.707Z,10.00
2018-12-30T21:40:00.626Z,10.00
2018-12-30T21:42:28.947Z,9.90
2018-12-30T21:44:56.994Z,9.90
2018-12-30T21:47:24.910Z,9.80
2018-12-30T21:49:53.467Z,9.80
2018-12-30T21:52:21.525Z,9.70
2018-12-30T21:54:49.498Z,9.70
2018-12-30T21:57:17.486Z,9.90
2018-12-30T21:59:45.403Z,9.90
2018-12-30T22:02:13.324Z,9.80
2018-12-30T22:04:41.804Z,9.80
2018-12-30T22:07:09.711Z,9.90
2018-12-30T22:09:37.667Z,9.70
2018-12-30T22:12:05.623Z,9.60
2018-12-30T22:14:56.934Z,9.60
2018-12-30T22:17:24.689Z,9.50
2018-12-30T22:19:52.828Z,9.60
2018-12-30T22:22:20.702Z,9.60
2018-12-30T22:24:48.566Z,9.60
2018-12-30T22:27:16.503Z,9.60
2018-12-30T22:29:44.328Z,9.60
2018-12-30T22:32:12.255Z,9.60
2018-12-30T22:34:40.160Z,9.50
2018-12-30T22:37:08.131Z,9.50
2018-12-30T22:39:36.124Z,9.50
2018-12-30T22:42:03.979Z,9.50
2018-12-30T22:44:31.854Z,9.40
2018-12-30T22:46:59.702Z,9.30
2018-12-30T22:49:27.603Z,9.40
2018-12-30T22:51:55.595Z,9.40
2018-12-30T22:54:23.534Z,9.50
2018-12-30T22:56:51.523Z,9.50
2018-12-30T22:59:19.572Z,9.50
2018-12-30T23:01:48.031Z,9.40
2018-12-30T23:04:15.941Z,9.50
2018-12-30T23:06:43.913Z,9.40
2018-12-30T23:09:12.035Z,9.40
2018-12-30T23:11:40.084Z,9.30
2018-12-30T23:14:08.215Z,9.40
2018-12-30T23:16:36.099Z,9.40
2018-12-30T23:19:04.154Z,9.40
2018-12-30T23:21:32.209Z,9.40
2018-12-30T23:24:00.115Z,9.30
2018-12-30T23:26:28.127Z,9.30
2018-12-30T23:28:56.066Z,9.30
2018-12-30T23:31:23.953Z,9.30
2018-12-30T23:33:51.939Z,9.40
2018-12-30T23:36:19.787Z,9.40
2018-12-30T23:38:47.679Z,9.40
2018-12-30T23:41:15.647Z,9.40
2018-12-30T23:43:43.643Z,9.40
2018-12-30T23:46:11.646Z,9.50
2018-12-30T23:48:39.562Z,9.50
2018-12-30T23:51:07.484Z,9.40
2018-12-30T23:53:35.390Z,9.40
2018-12-30T23:56:03.462Z,9.50
2018-12-30T23:58:31.314Z,9.50
